Galesburg, IL

3:39 AM CST on November 22, 2017 (GMT -0600)
Galesburg Municipal

Weather History for KGBG - May, 2014

Change the Weather History Date:

Saturday, May 3, 2014

  Actual Average Record
Temperature  
Mean Temperature 56 °F -  
Max Temperature 70 °F 66 °F 88 °F (1949)
Min Temperature 43 °F 45 °F 24 °F (2005)
Degree Days  
Heating Degree Days 8    
Growing Degree Days 6 (Base 50)    
Moisture  
Dew Point 42 °F    
Average Humidity 61    
Maximum Humidity 86    
Minimum Humidity 31    
Precipitation  
Precipitation 0.01 in - - ()
Sea Level Pressure  
Sea Level Pressure 29.85 in    
Wind  
Wind Speed 10 mph (West)    
Max Wind Speed 21 mph    
Max Gust Speed 30 mph    
Visibility 10 miles    
Events Rain    
Averages and records for this station are not official NWS values.
T = Trace of Precipitation, MM = Missing Value Source: NWS Daily Summary

Daily Weather History Graph

Daily Weather History Graph

Search for Another Location

Airport or City:

Trip Planner

Search our weather history database for the weather conditions in past years. The results will help you decide how hot, cold, wet, or windy it might be!

Date:

Astronomy

May. 03, 2014 Rise Set
Actual Time 5:57 AM CDT 8:00 PM CDT
Civil Twilight 5:27 AM CDT 8:30 PM CDT
Nautical Twilight 4:50 AM CDT 9:07 PM CDT
Astronomical Twilight 4:10 AM CDT 9:47 PM CDT
Moon 9:26 AM CDT (5/3) No Moon Set
Length of Visible Light 15h 03m
Length of Day
14h 03m
Waxing Crescent, 20% of the Moon is Illuminated
May 3
Waxing Crescent
May 6
First Quarter
May 14
Full
May 21
Last Quarter
May 28
New

Hourly Weather History & Observations

Time (CDT) Temp. Windchill Dew Point Humidity Pressure Visibility Wind Dir Wind Speed Gust Speed Precip Events Conditions
12:15 AM 49.6 °F - 42.8 °F 77% 29.75 in 10.0 mi West 6.9 mph - N/A   Mostly Cloudy
12:35 AM 48.2 °F - 42.4 °F 80% 29.75 in 10.0 mi West 5.8 mph - N/A   Scattered Clouds
12:55 AM 47.5 °F - 42.3 °F 82% 29.75 in 10.0 mi West 8.1 mph - N/A   Scattered Clouds
1:15 AM 46.9 °F - 41.7 °F 82% 29.75 in 10.0 mi West 5.8 mph - N/A   Clear
1:35 AM 46.6 °F - 41.0 °F 81% 29.75 in 10.0 mi WSW 5.8 mph - N/A   Clear
1:55 AM 49.5 °F - 42.4 °F 77% 29.75 in 10.0 mi WSW 4.6 mph - N/A   Clear
2:15 AM 48.7 °F - 41.7 °F 77% 29.75 in 10.0 mi WSW 5.8 mph - N/A   Clear
2:35 AM 48.6 °F - 41.9 °F 78% 29.75 in 10.0 mi WSW 5.8 mph - N/A   Clear
2:55 AM 47.7 °F - 41.5 °F 79% 29.75 in 10.0 mi West 9.2 mph - N/A   Clear
3:15 AM 46.9 °F - 41.0 °F 80% 29.75 in 10.0 mi West 8.1 mph - N/A   Clear
3:35 AM 46.8 °F - 40.6 °F 79% 29.76 in 10.0 mi West 9.2 mph - N/A   Clear
3:55 AM 46.6 °F - 40.6 °F 80% 29.77 in 10.0 mi WSW 8.1 mph - N/A   Clear
4:15 AM 46.8 °F - 40.5 °F 79% 29.77 in 10.0 mi West 8.1 mph - N/A   Clear
4:35 AM 45.3 °F 41.1 °F 40.1 °F 82% 29.78 in 10.0 mi West 8.1 mph - N/A   Clear
4:55 AM 44.6 °F 40.2 °F 40.1 °F 84% 29.78 in 10.0 mi West 8.1 mph - N/A   Clear
5:15 AM 43.7 °F 39.7 °F 39.7 °F 86% 29.79 in 10.0 mi West 6.9 mph - N/A   Clear
5:35 AM 43.7 °F 39.7 °F 39.7 °F 86% 29.79 in 10.0 mi West 6.9 mph - N/A   Clear
5:55 AM 45.0 °F 41.2 °F 39.6 °F 81% 29.80 in 10.0 mi West 6.9 mph - N/A   Clear
6:15 AM 45.0 °F 41.2 °F 39.6 °F 81% 29.81 in 10.0 mi West 6.9 mph - N/A   Clear
6:35 AM 45.0 °F 40.6 °F 39.7 °F 82% 29.82 in 10.0 mi West 8.1 mph - N/A   Clear
6:55 AM 45.7 °F 42.0 °F 40.1 °F 81% 29.84 in 10.0 mi WSW 6.9 mph - N/A   Clear
7:15 AM 47.3 °F - 41.0 °F 79% 29.84 in 10.0 mi West 8.1 mph - N/A   Clear
7:35 AM 49.1 °F - 41.9 °F 76% 29.85 in 10.0 mi West 9.2 mph - N/A   Clear
7:55 AM 49.3 °F - 42.1 °F 76% 29.86 in 10.0 mi West 10.4 mph - N/A   Clear
8:15 AM 50.9 °F - 42.3 °F 72% 29.86 in 10.0 mi West 10.4 mph - N/A   Clear
8:35 AM 51.8 °F - 42.8 °F 71% 29.86 in 10.0 mi West 9.2 mph - N/A   Clear
8:55 AM 52.7 °F - 42.3 °F 68% 29.87 in 10.0 mi West 8.1 mph - N/A   Clear
9:15 AM 54.5 °F - 42.6 °F 64% 29.87 in 10.0 mi WNW 11.5 mph - N/A   Clear
9:35 AM 55.9 °F - 43.0 °F 62% 29.88 in 10.0 mi WNW 9.2 mph - N/A   Clear
9:55 AM 57.0 °F - 43.0 °F 59% 29.88 in 10.0 mi West 10.4 mph - N/A   Clear
10:15 AM 58.3 °F - 43.7 °F 58% 29.89 in 10.0 mi West 12.7 mph - N/A   Clear
10:35 AM 59.4 °F - 43.9 °F 57% 29.89 in 10.0 mi West 12.7 mph 18.4 mph N/A   Clear
10:55 AM 60.8 °F - 42.6 °F 51% 29.89 in 10.0 mi West 15.0 mph 21.9 mph N/A   Clear
11:15 AM 61.7 °F - 41.9 °F 48% 29.89 in 10.0 mi West 17.3 mph 21.9 mph N/A   Clear
11:35 AM 62.8 °F - 41.4 °F 45% 29.89 in 10.0 mi WNW 15.0 mph 18.4 mph N/A   Clear
11:55 AM 64.0 °F - 39.9 °F 41% 29.89 in 10.0 mi West 17.3 mph 21.9 mph N/A   Clear
12:15 PM 64.6 °F - 39.6 °F 40% 29.90 in 10.0 mi WNW 16.1 mph 23.0 mph N/A   Clear
12:35 PM 65.1 °F - 40.3 °F 40% 29.89 in 10.0 mi WNW 18.4 mph 23.0 mph N/A   Clear
12:55 PM 66.2 °F - 40.1 °F 38% 29.89 in 10.0 mi West 18.4 mph 25.3 mph N/A   Scattered Clouds
1:15 PM 66.7 °F - 39.7 °F 37% 29.89 in 10.0 mi WNW 15.0 mph 26.5 mph N/A   Clear
1:35 PM 67.8 °F - 41.2 °F 38% 29.89 in 10.0 mi West 15.0 mph 25.3 mph N/A   Clear
1:55 PM 68.0 °F - 40.3 °F 36% 29.88 in 10.0 mi West 17.3 mph 25.3 mph N/A   Clear
2:15 PM 68.4 °F - 41.0 °F 37% 29.87 in 10.0 mi WSW 19.6 mph 24.2 mph N/A   Clear
2:35 PM 68.9 °F - 40.6 °F 36% 29.87 in 10.0 mi West 18.4 mph 25.3 mph N/A   Clear
2:55 PM 69.6 °F - 40.6 °F 35% 29.87 in 10.0 mi West 15.0 mph 23.0 mph N/A   Clear
3:15 PM 70.0 °F - 39.6 °F 33% 29.87 in 10.0 mi West 15.0 mph 27.6 mph N/A   Scattered Clouds
3:35 PM 70.2 °F - 38.7 °F 32% 29.86 in 10.0 mi West 20.7 mph 27.6 mph N/A   Clear
3:55 PM 70.5 °F - 39.2 °F 32% 29.86 in 10.0 mi West 16.1 mph 24.2 mph N/A   Clear
4:15 PM 70.2 °F - 39.0 °F 32% 29.86 in 10.0 mi West 20.7 mph 26.5 mph N/A   Clear
4:35 PM 70.3 °F - 39.0 °F 32% 29.86 in 10.0 mi West 19.6 mph 26.5 mph N/A   Clear
4:55 PM 70.0 °F - 38.1 °F 31% 29.87 in 10.0 mi West 20.7 mph 29.9 mph N/A   Scattered Clouds
5:15 PM 69.8 °F - 38.8 °F 32% 29.87 in 10.0 mi West 18.4 mph 26.5 mph N/A   Clear
5:35 PM 69.6 °F - 39.0 °F 33% 29.87 in 10.0 mi West 15.0 mph 21.9 mph N/A   Clear
5:55 PM 69.3 °F - 38.3 °F 32% 29.87 in 10.0 mi West 18.4 mph 24.2 mph N/A   Clear
6:15 PM 68.0 °F - 38.1 °F 33% 29.87 in 10.0 mi WNW 16.1 mph 25.3 mph N/A   Clear
6:35 PM 67.1 °F - 38.7 °F 35% 29.88 in 10.0 mi West 13.8 mph - N/A   Scattered Clouds
6:55 PM 66.2 °F - 38.8 °F 37% 29.88 in 10.0 mi West 10.4 mph - N/A   Mostly Cloudy
7:15 PM 64.9 °F - 40.1 °F 40% 29.88 in 10.0 mi West 5.8 mph - N/A   Mostly Cloudy
7:35 PM 63.1 °F - 42.6 °F 47% 29.89 in 10.0 mi WSW 8.1 mph - N/A Rain Light Rain
7:55 PM 63.5 °F - 40.8 °F 43% 29.89 in 10.0 mi SW 10.4 mph 20.7 mph N/A   Overcast
8:15 PM 61.2 °F - 43.7 °F 53% 29.91 in 10.0 mi WSW 13.8 mph 17.3 mph N/A Rain Light Rain
8:35 PM 57.4 °F - 47.3 °F 69% 29.91 in 10.0 mi WSW 10.4 mph - N/A Rain Rain
8:55 PM 57.0 °F - 48.2 °F 72% 29.91 in 10.0 mi West 8.1 mph - 0.01 in Rain Light Rain
9:15 PM 55.4 °F - 49.1 °F 79% 29.91 in 10.0 mi West 6.9 mph - N/A   Overcast
9:35 PM 56.8 °F - 48.4 °F 73% 29.92 in 10.0 mi West 6.9 mph - N/A   Overcast
9:55 PM 55.4 °F - 49.1 °F 79% 29.93 in 10.0 mi WNW 5.8 mph - N/A   Overcast
10:15 PM 54.7 °F - 48.4 °F 79% 29.94 in 10.0 mi WNW 5.8 mph - N/A   Mostly Cloudy
10:35 PM 55.0 °F - 48.4 °F 78% 29.94 in 10.0 mi West 4.6 mph - N/A   Mostly Cloudy
10:55 PM 53.6 °F - 48.2 °F 82% 29.94 in 10.0 mi West 6.9 mph - N/A   Overcast
11:15 PM 54.5 °F - 48.4 °F 80% 29.95 in 10.0 mi West 5.8 mph - N/A   Overcast
11:35 PM 53.6 °F - 48.4 °F 82% 29.94 in 10.0 mi West 4.6 mph - N/A   Overcast
11:55 PM 53.2 °F - 48.2 °F 83% 29.94 in 10.0 mi West 4.6 mph - N/A   Mostly Cloudy